createdAt,value
2018-08-27T00:00:44.297Z,54.49
2018-08-27T00:03:11.367Z,54.38
2018-08-27T00:05:38.447Z,53.89
2018-08-27T00:08:05.483Z,53.18
2018-08-27T00:10:32.503Z,53.15
2018-08-27T00:12:59.537Z,53.43
2018-08-27T00:15:27.131Z,52.52
2018-08-27T00:17:54.156Z,51.99
2018-08-27T00:20:21.142Z,52.11
2018-08-27T00:22:48.155Z,51.72
2018-08-27T00:25:15.168Z,51.68
2018-08-27T00:27:42.161Z,52.29
2018-08-27T00:30:09.464Z,53.66
2018-08-27T00:32:36.529Z,54.28
2018-08-27T00:35:03.596Z,54.20
2018-08-27T00:37:31.176Z,55.17
2018-08-27T00:39:58.259Z,55.05
2018-08-27T00:42:25.336Z,56.14
2018-08-27T00:44:52.660Z,56.88
2018-08-27T00:47:20.303Z,56.73
2018-08-27T00:49:47.287Z,56.34
2018-08-27T00:52:14.801Z,57.00
2018-08-27T00:54:41.824Z,56.42
2018-08-27T00:57:08.903Z,56.65
2018-08-27T00:59:35.979Z,56.96
2018-08-27T01:02:03.128Z,56.37
2018-08-27T01:04:30.123Z,57.77
2018-08-27T01:06:57.130Z,57.12
2018-08-27T01:09:24.120Z,57.16
2018-08-27T01:11:51.163Z,58.01
2018-08-27T01:14:18.554Z,57.63
2018-08-27T01:16:45.868Z,58.14
2018-08-27T01:19:12.878Z,58.31
2018-08-27T01:21:39.864Z,58.42
2018-08-27T01:24:06.848Z,58.23
2018-08-27T01:26:33.897Z,59.54
2018-08-27T01:29:00.873Z,59.24
2018-08-27T01:31:28.187Z,58.86
2018-08-27T01:33:55.180Z,59.25
2018-08-27T01:36:22.256Z,59.58
2018-08-27T01:38:49.331Z,59.56
2018-08-27T01:41:16.897Z,59.66
2018-08-27T01:43:43.924Z,59.57
2018-08-27T01:46:10.931Z,60.60
2018-08-27T01:48:37.915Z,60.86
2018-08-27T01:51:05.263Z,62.08
2018-08-27T01:53:32.277Z,62.67
2018-08-27T01:55:59.367Z,63.13
2018-08-27T01:58:26.927Z,63.41
2018-08-27T02:00:53.899Z,63.91
2018-08-27T02:03:20.883Z,64.37
2018-08-27T02:05:48.404Z,64.48
2018-08-27T02:08:15.567Z,65.27
2018-08-27T02:10:42.543Z,65.02
2018-08-27T02:13:09.592Z,65.48
2018-08-27T02:15:36.583Z,65.33
2018-08-27T02:18:03.737Z,66.25
2018-08-27T02:20:30.732Z,66.00
2018-08-27T02:22:57.708Z,67.13
2018-08-27T02:25:25.072Z,66.71
2018-08-27T02:27:52.057Z,67.02
2018-08-27T02:30:19.048Z,67.35
2018-08-27T02:32:46.319Z,67.35
2018-08-27T02:35:13.353Z,66.90
2018-08-27T02:37:40.701Z,67.34
2018-08-27T02:40:07.728Z,67.25
2018-08-27T02:42:34.724Z,67.63
2018-08-27T02:45:01.756Z,67.33
2018-08-27T02:47:28.795Z,67.88
2018-08-27T02:49:55.758Z,67.30
2018-08-27T02:52:22.745Z,67.75
2018-08-27T02:54:49.756Z,67.92
2018-08-27T02:57:16.758Z,67.60
2018-08-27T02:59:43.739Z,68.08
2018-08-27T03:02:17.739Z,68.25
2018-08-27T03:04:44.720Z,68.22
2018-08-27T03:07:11.728Z,67.52
2018-08-27T03:09:38.996Z,67.28
2018-08-27T03:12:06.497Z,66.54
2018-08-27T03:14:33.524Z,66.57
2018-08-27T03:17:00.528Z,65.62
2018-08-27T03:19:27.515Z,64.99
2018-08-27T03:21:54.581Z,64.01
2018-08-27T03:24:21.668Z,64.35
2018-08-27T03:26:48.663Z,64.60
2018-08-27T03:29:15.647Z,64.58
2018-08-27T03:31:42.943Z,64.08
2018-08-27T03:34:09.931Z,64.35
2018-08-27T03:36:36.950Z,66.03
2018-08-27T03:39:07.317Z,66.25
2018-08-27T03:41:34.300Z,69.08
2018-08-27T03:44:01.572Z,69.58
2018-08-27T03:46:28.647Z,69.87
2018-08-27T03:48:55.643Z,70.76
2018-08-27T03:51:23.075Z,72.76
2018-08-27T03:53:50.077Z,75.26
2018-08-27T03:56:17.091Z,76.42
2018-08-27T03:58:44.087Z,76.26
2018-08-27T04:01:12.617Z,76.11
2018-08-27T04:03:41.017Z,76.48
2018-08-27T04:06:09.866Z,76.68
2018-08-27T04:08:38.247Z,77.86
2018-08-27T04:11:05.302Z,79.49
2018-08-27T04:13:32.388Z,81.15
2018-08-27T04:15:59.400Z,82.30
2018-08-27T04:18:26.396Z,83.34
2018-08-27T04:20:53.372Z,84.73
2018-08-27T04:23:20.738Z,84.53
2018-08-27T04:25:47.717Z,84.54
2018-08-27T04:28:14.725Z,84.43
2018-08-27T04:30:42.175Z,84.84
2018-08-27T04:33:09.257Z,84.83
2018-08-27T04:35:36.252Z,84.74
2018-08-27T04:38:03.265Z,85.95
2018-08-27T04:40:30.259Z,87.15
2018-08-27T04:42:57.325Z,87.78
2018-08-27T04:45:24.401Z,88.58
2018-08-27T04:47:51.404Z,89.38
2018-08-27T04:50:18.403Z,89.76
2018-08-27T04:52:45.520Z,90.10
2018-08-27T04:55:12.531Z,89.65
2018-08-27T04:57:39.533Z,89.51
2018-08-27T05:00:11.181Z,89.38
2018-08-27T05:02:38.191Z,88.72
2018-08-27T05:05:05.204Z,88.37
2018-08-27T05:07:32.444Z,87.98
2018-08-27T05:09:59.437Z,88.37
2018-08-27T05:12:26.443Z,87.41
2018-08-27T05:14:53.757Z,87.94
2018-08-27T05:17:20.887Z,87.33
2018-08-27T05:19:47.952Z,87.16
2018-08-27T05:22:15.114Z,87.23
2018-08-27T05:24:42.348Z,87.18
2018-08-27T05:27:09.339Z,87.34
2018-08-27T05:29:36.323Z,88.45
2018-08-27T05:32:03.328Z,89.74
2018-08-27T05:34:30.395Z,91.14
2018-08-27T05:36:58.202Z,92.08
2018-08-27T05:39:25.192Z,92.56
2018-08-27T05:41:52.260Z,93.39
2018-08-27T05:44:19.288Z,93.28
2018-08-27T05:46:46.241Z,91.85
2018-08-27T05:49:20.321Z,92.76
2018-08-27T05:51:47.313Z,92.48
2018-08-27T05:54:14.311Z,92.01
2018-08-27T05:56:41.320Z,92.63
2018-08-27T05:59:08.299Z,94.75
2018-08-27T06:01:35.472Z,94.97
2018-08-27T06:04:02.787Z,96.25
2018-08-27T06:06:29.761Z,97.24
2018-08-27T06:08:56.744Z,99.19
2018-08-27T06:11:24.232Z,99.55
2018-08-27T06:13:51.400Z,99.96
2018-08-27T06:16:18.468Z,100.00
2018-08-27T06:18:45.495Z,98.13
2018-08-27T06:21:12.463Z,99.51
2018-08-27T06:23:39.603Z,98.95
2018-08-27T06:26:06.683Z,98.63
2018-08-27T06:28:33.804Z,95.88
2018-08-27T06:31:01.113Z,95.60
2018-08-27T06:33:28.104Z,96.21
2018-08-27T06:35:55.200Z,96.71
2018-08-27T06:38:22.252Z,94.36
2018-08-27T06:40:49.343Z,95.08
2018-08-27T06:43:16.417Z,94.06
2018-08-27T06:45:43.423Z,94.17
2018-08-27T06:48:10.413Z,92.81
2018-08-27T06:50:37.420Z,93.28
2018-08-27T06:53:04.592Z,93.56
2018-08-27T06:55:31.992Z,92.24
2018-08-27T06:57:59.059Z,91.83
2018-08-27T07:00:26.039Z,91.58
2018-08-27T07:02:53.028Z,91.52
2018-08-27T07:05:20.032Z,89.98
2018-08-27T07:07:47.080Z,90.42
2018-08-27T07:10:14.019Z,89.09
2018-08-27T07:12:41.460Z,88.54
2018-08-27T07:15:09.392Z,88.47
2018-08-27T07:17:36.461Z,87.69
2018-08-27T07:20:04.915Z,85.42
2018-08-27T07:22:31.956Z,86.29
2018-08-27T07:24:59.041Z,86.14
2018-08-27T07:27:26.046Z,86.44
2018-08-27T07:29:53.076Z,85.75
2018-08-27T07:32:20.163Z,85.75
2018-08-27T07:34:47.271Z,86.52
2018-08-27T07:37:14.356Z,85.19
2018-08-27T07:39:42.346Z,84.36
2018-08-27T07:42:09.409Z,83.60
2018-08-27T07:44:36.436Z,83.67
2018-08-27T07:47:03.464Z,83.37
2018-08-27T07:49:31.424Z,82.85
2018-08-27T07:51:58.424Z,83.25
2018-08-27T07:54:25.679Z,82.82
2018-08-27T07:56:52.755Z,83.43
2018-08-27T07:59:19.796Z,84.05
2018-08-27T08:01:47.080Z,84.45
2018-08-27T08:04:14.076Z,86.31
2018-08-27T08:06:41.411Z,86.32
2018-08-27T08:09:10.188Z,86.54
2018-08-27T08:11:37.165Z,87.22
2018-08-27T08:14:04.241Z,87.38
2018-08-27T08:16:31.665Z,88.96
2018-08-27T08:18:58.641Z,89.28
2018-08-27T08:21:25.730Z,90.05
2018-08-27T08:23:53.252Z,90.21
2018-08-27T08:26:20.241Z,90.67
2018-08-27T08:28:47.509Z,90.29
2018-08-27T08:31:14.511Z,90.65
2018-08-27T08:33:41.494Z,90.82
2018-08-27T08:36:09.218Z,90.80
2018-08-27T08:38:36.376Z,91.06
2018-08-27T08:41:03.412Z,91.91
2018-08-27T08:43:30.972Z,91.84
2018-08-27T08:45:58.031Z,91.86
2018-08-27T08:48:25.452Z,92.76
2018-08-27T08:50:52.512Z,93.11
2018-08-27T08:53:20.231Z,93.52
2018-08-27T08:55:47.294Z,93.47
2018-08-27T08:58:14.907Z,94.22
2018-08-27T09:00:41.889Z,94.72
2018-08-27T09:03:08.953Z,95.30
2018-08-27T09:05:36.116Z,95.84
2018-08-27T09:08:03.328Z,96.12
2018-08-27T09:10:30.360Z,96.24
2018-08-27T09:12:58.218Z,97.02
2018-08-27T09:15:25.210Z,96.90
2018-08-27T09:17:52.185Z,97.38
2018-08-27T09:20:19.612Z,97.81
2018-08-27T09:22:46.710Z,98.42
2018-08-27T09:25:13.704Z,98.65
2018-08-27T09:27:41.303Z,99.87
2018-08-27T09:30:09.023Z,99.67
2018-08-27T09:32:36.091Z,100.00
2018-08-27T09:35:03.204Z,100.00
2018-08-27T09:37:30.318Z,100.00
2018-08-27T09:39:57.298Z,100.00
2018-08-27T09:42:24.613Z,100.00
2018-08-27T09:44:51.681Z,100.00
2018-08-27T09:47:19.003Z,100.00
2018-08-27T09:49:46.180Z,100.00
2018-08-27T09:52:13.205Z,100.00
2018-08-27T09:54:40.195Z,100.00
2018-08-27T09:57:07.197Z,100.00
2018-08-27T09:59:34.572Z,100.00
2018-08-27T10:02:02.974Z,100.00
2018-08-27T10:04:29.964Z,100.00
2018-08-27T10:06:57.548Z,99.47
2018-08-27T10:09:24.562Z,99.46
2018-08-27T10:11:51.804Z,99.14
2018-08-27T10:14:18.917Z,98.41
2018-08-27T10:16:46.159Z,98.36
2018-08-27T10:19:13.229Z,98.12
2018-08-27T10:21:40.588Z,98.12
2018-08-27T10:24:07.659Z,97.05
2018-08-27T10:26:34.924Z,96.61
2018-08-27T10:29:02.551Z,96.49
2018-08-27T10:31:29.608Z,95.77
2018-08-27T10:33:56.624Z,95.10
2018-08-27T10:36:23.610Z,94.71
2018-08-27T10:38:51.216Z,94.02
2018-08-27T10:41:18.191Z,92.56
2018-08-27T10:43:45.187Z,92.30
2018-08-27T10:46:12.199Z,92.20
2018-08-27T10:48:39.371Z,91.86
2018-08-27T10:51:06.357Z,92.09
2018-08-27T10:53:34.000Z,91.92
2018-08-27T10:56:00.988Z,90.24
2018-08-27T10:58:28.175Z,89.53
2018-08-27T11:00:55.057Z,89.16
2018-08-27T11:03:22.079Z,87.36
2018-08-27T11:05:49.100Z,85.56
2018-08-27T11:08:16.100Z,84.60
2018-08-27T11:10:43.420Z,84.88
2018-08-27T11:13:10.371Z,84.26
2018-08-27T11:15:37.395Z,83.52
2018-08-27T11:18:04.774Z,81.17
2018-08-27T11:20:32.019Z,80.74
2018-08-27T11:22:59.056Z,80.21
2018-08-27T11:25:26.144Z,81.30
2018-08-27T11:27:53.139Z,78.62
2018-08-27T11:30:20.750Z,79.28
2018-08-27T11:32:48.214Z,78.37
2018-08-27T11:35:15.806Z,79.24
2018-08-27T11:37:43.344Z,78.53
2018-08-27T11:40:10.867Z,77.39
2018-08-27T11:42:41.304Z,77.83
2018-08-27T11:45:09.026Z,78.19
2018-08-27T11:47:36.260Z,77.71
2018-08-27T11:50:03.663Z,77.60
2018-08-27T11:52:31.450Z,74.90
2018-08-27T11:54:59.213Z,74.61
2018-08-27T11:57:26.336Z,74.30
2018-08-27T11:59:53.323Z,72.84
2018-08-27T12:02:20.745Z,73.90
2018-08-27T12:04:48.016Z,73.10
2018-08-27T12:07:15.078Z,72.93
2018-08-27T12:09:42.081Z,72.79
2018-08-27T12:12:09.440Z,72.15
2018-08-27T12:14:36.422Z,72.59
2018-08-27T12:17:03.424Z,71.67
2018-08-27T12:19:30.513Z,71.90
2018-08-27T12:21:57.564Z,73.25
2018-08-27T12:24:24.598Z,73.49
2018-08-27T12:26:51.928Z,72.26
2018-08-27T12:29:18.950Z,73.57
2018-08-27T12:31:45.946Z,75.56
2018-08-27T12:34:12.956Z,77.84
2018-08-27T12:36:39.951Z,93.21
2018-08-27T12:39:08.818Z,99.66
2018-08-27T12:41:35.976Z,98.32
2018-08-27T12:44:03.024Z,100.00
2018-08-27T12:46:30.361Z,98.38
2018-08-27T12:48:57.397Z,97.50
2018-08-27T12:51:24.500Z,97.75
2018-08-27T12:53:51.507Z,97.46
2018-08-27T12:56:18.635Z,100.00
2018-08-27T12:58:45.622Z,97.36
2018-08-27T13:01:12.716Z,97.98
2018-08-27T13:03:39.746Z,97.06
2018-08-27T13:06:08.472Z,96.07
2018-08-27T13:08:35.577Z,93.43
2018-08-27T13:11:02.676Z,90.65
2018-08-27T13:13:30.331Z,87.14
2018-08-27T13:15:57.472Z,84.50
2018-08-27T13:18:24.519Z,85.91
2018-08-27T13:20:51.890Z,84.46
2018-08-27T13:23:18.868Z,82.76
2018-08-27T13:25:46.011Z,84.45
2018-08-27T13:28:12.976Z,82.97
2018-08-27T13:30:40.024Z,83.03
2018-08-27T13:33:06.960Z,82.00
2018-08-27T13:35:34.247Z,84.84
2018-08-27T13:38:01.256Z,78.47
2018-08-27T13:40:28.344Z,78.58
2018-08-27T13:42:55.622Z,77.83
2018-08-27T13:45:22.605Z,75.38
2018-08-27T13:47:49.676Z,75.07
2018-08-27T13:50:16.751Z,75.96
2018-08-27T13:52:43.841Z,74.40
2018-08-27T13:55:10.841Z,77.51
2018-08-27T13:57:38.093Z,73.91
2018-08-27T14:00:05.740Z,73.52
2018-08-27T14:02:32.719Z,73.64
2018-08-27T14:04:59.812Z,74.22
2018-08-27T14:07:26.915Z,75.48
2018-08-27T14:09:53.916Z,74.53
2018-08-27T14:12:21.071Z,74.03
2018-08-27T14:14:48.148Z,73.20
2018-08-27T14:17:15.163Z,73.32
2018-08-27T14:19:42.796Z,73.42
2018-08-27T14:22:09.736Z,73.20
2018-08-27T14:24:36.720Z,73.11
2018-08-27T14:27:03.988Z,74.09
2018-08-27T14:29:30.964Z,74.76
2018-08-27T14:31:57.941Z,75.45
2018-08-27T14:34:25.034Z,75.51
2018-08-27T14:36:52.111Z,76.60
2018-08-27T14:39:19.111Z,76.35
2018-08-27T14:41:46.416Z,81.08
2018-08-27T14:44:13.382Z,82.17
2018-08-27T14:46:40.381Z,83.02
2018-08-27T14:49:07.491Z,82.89
2018-08-27T14:51:34.487Z,83.12
2018-08-27T14:54:01.515Z,82.54
2018-08-27T14:56:28.762Z,82.44
2018-08-27T14:58:55.744Z,83.04
2018-08-27T15:01:22.731Z,81.63
2018-08-27T15:03:49.813Z,82.10
2018-08-27T15:06:16.808Z,82.14
2018-08-27T15:08:43.791Z,80.73
2018-08-27T15:11:11.160Z,80.74
2018-08-27T15:13:38.147Z,80.53
2018-08-27T15:16:05.352Z,79.63
2018-08-27T15:18:32.323Z,78.60
2018-08-27T15:20:59.385Z,80.16
2018-08-27T15:23:26.474Z,78.58
2018-08-27T15:25:53.844Z,79.50
2018-08-27T15:28:20.852Z,78.27
2018-08-27T15:30:47.828Z,78.57
2018-08-27T15:33:14.912Z,76.33
2018-08-27T15:35:41.899Z,76.20
2018-08-27T15:38:08.904Z,76.32
2018-08-27T15:40:35.890Z,78.79
2018-08-27T15:43:02.882Z,81.46
2018-08-27T15:45:35.936Z,85.04
2018-08-27T15:48:02.947Z,87.46
2018-08-27T15:50:30.028Z,90.03
2018-08-27T15:52:57.157Z,90.50
2018-08-27T15:55:24.215Z,90.36
2018-08-27T15:57:51.188Z,89.23
2018-08-27T16:00:18.330Z,89.00
2018-08-27T16:02:45.396Z,87.13
2018-08-27T16:05:12.390Z,87.25
2018-08-27T16:07:39.784Z,87.12
2018-08-27T16:10:06.784Z,85.77
2018-08-27T16:12:33.775Z,84.85
2018-08-27T16:15:00.791Z,83.24
2018-08-27T16:17:27.777Z,82.53
2018-08-27T16:19:54.852Z,81.80
2018-08-27T16:22:22.171Z,77.19
2018-08-27T16:24:49.282Z,76.35
2018-08-27T16:27:16.252Z,77.34
2018-08-27T16:29:43.312Z,75.25
2018-08-27T16:32:10.347Z,74.82
2018-08-27T16:34:37.413Z,72.61
2018-08-27T16:37:04.424Z,72.84
2018-08-27T16:39:31.523Z,74.12
2018-08-27T16:41:58.444Z,71.19
2018-08-27T16:44:25.474Z,72.17
2018-08-27T16:46:52.547Z,71.13
2018-08-27T16:49:19.534Z,71.52
2018-08-27T16:51:46.943Z,71.96
2018-08-27T16:54:13.931Z,70.56
2018-08-27T16:56:40.904Z,70.21
2018-08-27T16:59:08.307Z,70.79
2018-08-27T17:01:35.300Z,71.52
2018-08-27T17:04:02.515Z,71.08
2018-08-27T17:06:29.511Z,71.50
2018-08-27T17:08:56.488Z,72.45
2018-08-27T17:11:23.556Z,72.36
2018-08-27T17:13:50.909Z,71.77
2018-08-27T17:16:17.904Z,72.09
2018-08-27T17:18:44.891Z,71.80
2018-08-27T17:21:11.907Z,72.04
2018-08-27T17:23:38.903Z,71.92
2018-08-27T17:26:05.940Z,72.62
2018-08-27T17:28:32.973Z,72.42
2018-08-27T17:31:00.041Z,72.78
2018-08-27T17:33:27.020Z,72.61
2018-08-27T17:35:54.020Z,73.12
2018-08-27T17:38:21.106Z,72.67
2018-08-27T17:40:48.103Z,73.20
2018-08-27T17:43:15.140Z,73.78
2018-08-27T17:45:42.295Z,73.11
2018-08-27T17:48:09.276Z,73.68
2018-08-27T17:50:36.431Z,74.06
2018-08-27T17:53:03.408Z,74.11
2018-08-27T17:55:30.408Z,74.51
2018-08-27T17:57:57.410Z,74.71
2018-08-27T18:00:24.393Z,74.72
2018-08-27T18:02:51.432Z,75.27
2018-08-27T18:05:18.508Z,75.11
2018-08-27T18:07:45.536Z,75.39
2018-08-27T18:10:12.873Z,75.28
2018-08-27T18:12:39.864Z,76.23
2018-08-27T18:15:08.127Z,75.98
2018-08-27T18:17:35.455Z,76.19
2018-08-27T18:20:02.661Z,76.84
2018-08-27T18:22:29.738Z,77.10
2018-08-27T18:24:56.831Z,77.07
2018-08-27T18:27:23.807Z,78.02
2018-08-27T18:29:50.795Z,77.71
2018-08-27T18:32:18.231Z,78.47
2018-08-27T18:34:45.260Z,78.50
2018-08-27T18:37:12.308Z,79.34
2018-08-27T18:39:39.324Z,79.22
2018-08-27T18:42:06.411Z,79.13
2018-08-27T18:44:33.404Z,79.79
2018-08-27T18:47:00.717Z,79.91
2018-08-27T18:49:27.696Z,80.23
2018-08-27T18:51:54.680Z,80.11
2018-08-27T18:54:21.798Z,80.54
2018-08-27T18:56:48.857Z,80.92
2018-08-27T18:59:15.948Z,81.19
2018-08-27T19:01:43.841Z,81.43
2018-08-27T19:04:11.169Z,81.10
2018-08-27T19:06:38.185Z,82.28
2018-08-27T19:09:06.398Z,82.55
2018-08-27T19:11:33.672Z,81.87
2018-08-27T19:14:00.655Z,83.17
2018-08-27T19:16:27.763Z,83.29
2018-08-27T19:18:55.181Z,83.04
2018-08-27T19:21:22.159Z,83.73
2018-08-27T19:23:49.136Z,83.58
2018-08-27T19:26:16.227Z,84.20
2018-08-27T19:28:43.204Z,83.63
2018-08-27T19:31:10.294Z,83.87
2018-08-27T19:33:37.423Z,84.07
2018-08-27T19:36:04.583Z,84.69
2018-08-27T19:38:31.512Z,84.83
2018-08-27T19:40:58.624Z,85.01
2018-08-27T19:43:25.602Z,84.66
2018-08-27T19:45:52.718Z,85.12
2018-08-27T19:48:19.972Z,85.01
2018-08-27T19:50:46.953Z,85.33
2018-08-27T19:53:14.111Z,85.17
2018-08-27T19:55:41.137Z,85.78
2018-08-27T19:58:08.128Z,85.37
2018-08-27T20:00:35.107Z,85.70
2018-08-27T20:03:02.096Z,86.18
2018-08-27T20:05:29.161Z,86.67
2018-08-27T20:07:56.149Z,86.40
2018-08-27T20:10:23.129Z,86.69
2018-08-27T20:12:50.217Z,87.50
2018-08-27T20:15:17.224Z,87.85
2018-08-27T20:17:44.300Z,87.74
2018-08-27T20:20:11.391Z,88.59
2018-08-27T20:22:38.395Z,87.28
2018-08-27T20:25:05.512Z,87.83
2018-08-27T20:27:32.584Z,88.49
2018-08-27T20:29:59.580Z,87.89
2018-08-27T20:32:26.652Z,88.25
2018-08-27T20:34:53.725Z,88.56
2018-08-27T20:37:21.016Z,88.64
2018-08-27T20:39:48.116Z,89.20
2018-08-27T20:42:15.005Z,89.07
2018-08-27T20:44:42.060Z,89.22
2018-08-27T20:47:09.123Z,89.58
2018-08-27T20:49:36.102Z,89.51
2018-08-27T20:52:03.120Z,88.95
2018-08-27T20:54:30.217Z,89.25
2018-08-27T20:56:57.364Z,88.61
2018-08-27T20:59:24.302Z,89.46
2018-08-27T21:01:51.275Z,88.95
2018-08-27T21:04:18.283Z,89.02
2018-08-27T21:06:45.271Z,89.23
2018-08-27T21:09:12.266Z,89.55
2018-08-27T21:11:39.323Z,88.94
2018-08-27T21:14:16.431Z,89.49
2018-08-27T21:16:43.500Z,89.68
2018-08-27T21:19:10.481Z,89.81
2018-08-27T21:21:37.915Z,89.68
2018-08-27T21:24:04.980Z,89.81
2018-08-27T21:26:32.039Z,90.30
2018-08-27T21:28:59.080Z,90.24
2018-08-27T21:31:26.133Z,90.46
2018-08-27T21:33:53.050Z,91.06
2018-08-27T21:36:20.063Z,91.31
2018-08-27T21:38:47.228Z,91.02
2018-08-27T21:41:14.211Z,91.66
2018-08-27T21:43:41.230Z,91.47
2018-08-27T21:48:42.052Z,92.23
2018-08-27T21:51:09.055Z,92.66
2018-08-27T21:53:36.052Z,92.38
2018-08-27T21:56:03.131Z,92.84
2018-08-27T21:58:30.198Z,92.47
2018-08-27T22:00:57.245Z,93.11
2018-08-27T22:03:29.899Z,93.48
2018-08-27T22:05:56.875Z,93.36
2018-08-27T22:08:24.184Z,94.08
2018-08-27T22:10:51.176Z,94.17
2018-08-27T22:13:18.288Z,94.40
2018-08-27T22:15:45.343Z,94.22
2018-08-27T22:18:12.575Z,94.79
2018-08-27T22:20:39.643Z,94.98
2018-08-27T22:23:06.696Z,95.50
2018-08-27T22:25:33.691Z,95.29
2018-08-27T22:28:00.747Z,95.28
2018-08-27T22:30:27.728Z,95.77
2018-08-27T22:32:55.168Z,95.96
2018-08-27T22:35:22.156Z,96.38
2018-08-27T22:37:49.216Z,97.15
2018-08-27T22:40:16.692Z,96.95
2018-08-27T22:42:43.745Z,97.33
2018-08-27T22:45:10.733Z,97.41
2018-08-27T22:47:37.775Z,97.82
2018-08-27T22:50:04.967Z,97.85
2018-08-27T22:52:31.992Z,97.99
2018-08-27T22:54:58.972Z,98.36
2018-08-27T22:57:25.960Z,98.16
2018-08-27T22:59:53.030Z,98.73
2018-08-27T23:02:25.995Z,99.29
2018-08-27T23:04:57.669Z,98.93
2018-08-27T23:07:24.956Z,99.37
2018-08-27T23:09:51.943Z,99.97
2018-08-27T23:12:18.947Z,99.70
2018-08-27T23:14:45.944Z,100.00
2018-08-27T23:17:13.003Z,100.00
2018-08-27T23:19:40.095Z,100.00
2018-08-27T23:22:07.080Z,100.00
2018-08-27T23:24:34.078Z,100.00
2018-08-27T23:27:01.129Z,100.00
2018-08-27T23:29:28.100Z,100.00
2018-08-27T23:31:55.206Z,100.00
2018-08-27T23:34:22.263Z,100.00
2018-08-27T23:36:49.423Z,100.00
2018-08-27T23:39:16.419Z,100.00
2018-08-27T23:41:43.397Z,100.00
2018-08-27T23:44:10.383Z,100.00
2018-08-27T23:46:37.876Z,100.00
2018-08-27T23:49:05.393Z,100.00
2018-08-27T23:51:32.395Z,100.00
2018-08-27T23:53:59.368Z,100.00
2018-08-27T23:56:26.515Z,100.00
2018-08-27T23:58:53.806Z,100.00
